Time;durP1;ratioP1;P1;durP2;ratioP2;P2;SDS_P1;SDS_P2;PMS_P1;PMS_P2;Temp;Humidity;BMP_temperature;BMP_pressure;BME280_temperature;BME280_humidity;BME280_pressure;Samples;Min_cycle;Max_cycle;Signal;HPM_P1;HPM_P2
2021/12/29 00:00:11;;;;;;;5.50;1.50;;;9.40;1.00;;;;;;5074767;28;20449;-81
2021/12/29 00:02:38;;;;;;;1.50;0.90;;;9.30;1.00;;;;;;5081755;28;20528;-80
2021/12/29 00:05:06;;;;;;;2.13;1.17;;;9.30;1.00;;;;;;5074107;28;20996;-80
2021/12/29 00:07:33;;;;;;;2.77;1.00;;;9.40;1.00;;;;;;5074392;28;20541;-81
2021/12/29 00:10:01;;;;;;;3.60;1.10;;;9.40;1.00;;;;;;5074508;28;20540;-76
2021/12/29 00:12:30;;;;;;;6.57;1.13;;;9.40;1.00;;;;;;5074766;28;20458;-82
2021/12/29 00:14:57;;;;;;;2.47;1.00;;;9.50;1.00;;;;;;5073831;28;20445;-82
2021/12/29 00:17:24;;;;;;;2.80;1.07;;;9.50;1.00;;;;;;5075248;28;20456;-82
2021/12/29 00:19:51;;;;;;;1.63;0.70;;;9.50;1.00;;;;;;5075002;28;20445;-81
2021/12/29 00:22:18;;;;;;;2.77;1.10;;;9.50;1.00;;;;;;5074185;28;20453;-81
2021/12/29 00:24:46;;;;;;;7.40;1.13;;;9.60;1.00;;;;;;5074724;28;20564;-83
2021/12/29 00:27:13;;;;;;;2.90;0.83;;;9.50;1.00;;;;;;5073607;28;20858;-81
2021/12/29 00:29:42;;;;;;;3.60;0.73;;;9.50;1.00;;;;;;5074474;28;20453;-78
2021/12/29 00:32:09;;;;;;;2.30;0.97;;;9.50;99.90;;;;;;5074216;28;20456;-80
2021/12/29 00:34:36;;;;;;;5.70;0.90;;;9.50;99.90;;;;;;5074565;28;20517;-82
2021/12/29 00:37:03;;;;;;;1.10;0.70;;;9.50;1.00;;;;;;5072605;28;20526;-81
2021/12/29 00:39:30;;;;;;;3.77;0.87;;;9.50;1.00;;;;;;5074830;28;20480;-76
2021/12/29 00:41:56;;;;;;;3.00;1.10;;;9.50;1.00;;;;;;5073117;28;20445;-82
2021/12/29 00:44:23;;;;;;;2.03;0.70;;;9.50;1.00;;;;;;5072472;28;20452;-83
2021/12/29 00:46:54;;;;;;;6.40;1.03;;;9.50;1.00;;;;;;5072634;28;20497;-82
2021/12/29 00:49:22;;;;;;;3.07;0.90;;;9.50;1.00;;;;;;5072485;28;20532;-80
2021/12/29 00:51:49;;;;;;;4.50;0.87;;;9.40;1.00;;;;;;5072877;28;20872;-81
2021/12/29 00:54:16;;;;;;;2.70;0.73;;;9.40;1.00;;;;;;5072470;28;20817;-81
2021/12/29 00:56:44;;;;;;;2.70;1.00;;;9.40;1.00;;;;;;5072231;28;20540;-81
2021/12/29 00:59:11;;;;;;;1.10;0.50;;;9.30;12.70;;;;;;5072080;28;20549;-81
2021/12/29 01:01:38;;;;;;;1.70;0.80;;;9.20;99.90;;;;;;5072890;28;20536;-82
2021/12/29 01:04:07;;;;;;;3.37;0.93;;;9.10;99.90;;;;;;5074185;28;20814;-82
2021/12/29 01:06:34;;;;;;;3.33;1.20;;;9.10;99.90;;;;;;5072217;28;20484;-82
2021/12/29 01:09:01;;;;;;;1.20;0.60;;;9.10;99.90;;;;;;5072014;28;20817;-82
2021/12/29 01:11:28;;;;;;;3.37;0.87;;;9.10;99.90;;;;;;5072781;28;20536;-82
2021/12/29 01:13:55;;;;;;;1.93;0.67;;;9.10;99.90;;;;;;5072016;28;20442;-82
2021/12/29 01:19:10;;;;;;;1.67;0.60;;;9.10;99.90;;;;;;5069178;28;20494;-81
2021/12/29 01:21:38;;;;;;;3.63;3.27;;;9.00;99.90;;;;;;5072280;28;20458;-83
2021/12/29 01:24:06;;;;;;;3.63;0.80;;;9.20;99.90;;;;;;5071907;28;20524;-83
2021/12/29 01:26:33;;;;;;;1.63;0.80;;;9.10;99.90;;;;;;5071470;28;20477;-82
2021/12/29 01:29:00;;;;;;;1.37;0.70;;;9.10;99.90;;;;;;5071797;28;20459;-78
2021/12/29 01:31:27;;;;;;;1.77;0.90;;;9.10;99.90;;;;;;5072259;28;20452;-82
2021/12/29 01:33:54;;;;;;;2.07;0.90;;;9.30;99.90;;;;;;5072433;28;20457;-82
2021/12/29 01:36:23;;;;;;;1.60;0.73;;;9.20;99.90;;;;;;5070943;28;20677;-81
2021/12/29 01:38:49;;;;;;;2.13;0.90;;;9.20;99.90;;;;;;5072118;28;20876;-82
2021/12/29 01:41:17;;;;;;;1.97;0.67;;;9.20;99.90;;;;;;5071339;28;20536;-83
2021/12/29 01:43:44;;;;;;;2.30;0.93;;;9.20;99.90;;;;;;5072050;28;20441;-82
2021/12/29 01:46:11;;;;;;;2.07;0.77;;;9.30;99.90;;;;;;5071124;28;20483;-81
2021/12/29 01:48:38;;;;;;;1.00;0.60;;;9.40;99.90;;;;;;5071956;28;20453;-83
2021/12/29 01:51:05;;;;;;;3.00;1.00;;;9.30;75.80;;;;;;5070661;28;20544;-81
2021/12/29 01:53:34;;;;;;;2.70;1.00;;;9.30;82.90;;;;;;5073617;28;20438;-83
2021/12/29 01:56:01;;;;;;;1.10;0.80;;;9.30;59.80;;;;;;5070871;28;20525;-82
2021/12/29 01:58:29;;;;;;;3.90;0.70;;;9.40;24.90;;;;;;5071510;28;20442;-83
2021/12/29 02:00:59;;;;;;;2.20;0.53;;;9.40;16.20;;;;;;5071270;28;20952;-83
2021/12/29 02:03:27;;;;;;;1.00;0.70;;;9.40;3.30;;;;;;5071788;28;20465;-83
2021/12/29 02:05:54;;;;;;;1.77;0.57;;;9.40;5.80;;;;;;5071319;28;20513;-83
2021/12/29 02:08:23;;;;;;;2.53;0.97;;;9.40;3.70;;;;;;5070705;28;20452;-82
2021/12/29 02:10:55;;;;;;;3.50;0.60;;;9.40;33.00;;;;;;5071401;28;20452;-82
2021/12/29 02:13:23;;;;;;;1.10;0.70;;;9.40;54.80;;;;;;5071195;28;20442;-83
2021/12/29 02:15:49;;;;;;;1.43;0.70;;;9.40;64.40;;;;;;5071333;28;20495;-83
2021/12/29 02:18:20;;;;;;;1.80;0.90;;;9.40;55.70;;;;;;5070261;28;20456;-83
2021/12/29 02:20:51;;;;;;;1.23;0.50;;;9.30;73.40;;;;;;5070975;28;20956;-83
2021/12/29 02:23:24;;;;;;;2.47;0.50;;;9.30;90.90;;;;;;5070880;28;20869;-81
2021/12/29 02:25:54;;;;;;;0.90;0.70;;;9.30;70.70;;;;;;5070675;28;20496;-82
2021/12/29 02:28:27;;;;;;;0.80;0.50;;;9.30;12.70;;;;;;5070127;28;20453;-83
2021/12/29 02:30:55;;;;;;;0.60;0.40;;;9.40;1.00;;;;;;5071534;28;20454;-83
2021/12/29 02:33:24;;;;;;;2.47;0.80;;;9.40;1.00;;;;;;5070763;28;20451;-83
2021/12/29 02:35:52;;;;;;;2.07;0.77;;;9.40;1.00;;;;;;5070997;28;20459;-81
2021/12/29 02:38:26;;;;;;;0.80;0.60;;;9.40;1.00;;;;;;5070233;28;20671;-83
2021/12/29 02:40:56;;;;;;;0.97;0.50;;;9.40;1.00;;;;;;5071105;28;20441;-83
2021/12/29 02:43:24;;;;;;;1.70;0.80;;;9.40;1.00;;;;;;5070710;28;20456;-83
2021/12/29 02:45:58;;;;;;;1.10;0.60;;;9.40;1.00;;;;;;5070816;28;20478;-82
2021/12/29 02:48:26;;;;;;;1.00;0.73;;;9.50;1.00;;;;;;5070329;28;20437;-83
2021/12/29 02:50:56;;;;;;;0.90;0.57;;;9.50;1.00;;;;;;5070848;28;20437;-81
2021/12/29 02:53:24;;;;;;;0.60;0.50;;;9.60;99.90;;;;;;5070083;28;20567;-82
2021/12/29 02:55:52;;;;;;;1.40;0.70;;;9.50;99.90;;;;;;5070966;28;20841;-82
2021/12/29 02:58:18;;;;;;;1.10;0.60;;;9.50;99.90;;;;;;5069927;28;20441;-82
2021/12/29 03:00:45;;;;;;;0.90;0.50;;;9.60;99.90;;;;;;5070343;28;20941;-82
2021/12/29 03:03:16;;;;;;;1.57;0.63;;;9.50;99.90;;;;;;5070020;28;20448;-82
2021/12/29 03:05:44;;;;;;;0.70;0.60;;;9.50;99.90;;;;;;5070304;28;20513;-81
2021/12/29 03:08:12;;;;;;;1.73;0.47;;;9.60;99.90;;;;;;5070110;28;20448;-78
2021/12/29 03:10:40;;;;;;;0.60;0.50;;;9.60;18.40;;;;;;5070570;28;20442;-81
2021/12/29 03:13:08;;;;;;;1.83;0.70;;;9.60;99.90;;;;;;5070408;28;20807;-82
2021/12/29 03:15:35;;;;;;;1.77;0.80;;;9.60;34.30;;;;;;5070439;28;20942;-82
2021/12/29 03:18:02;;;;;;;1.43;0.90;;;9.70;1.00;;;;;;5069874;28;20532;-82
2021/12/29 03:20:30;;;;;;;1.00;0.50;;;9.70;1.00;;;;;;5070722;28;20457;-77
2021/12/29 03:22:57;;;;;;;0.87;0.50;;;9.70;1.00;;;;;;5071372;28;20475;-81
2021/12/29 03:25:26;;;;;;;0.93;0.50;;;9.70;1.00;;;;;;5070374;28;20445;-80
2021/12/29 03:27:58;;;;;;;1.87;0.60;;;9.80;1.00;;;;;;5070321;28;20955;-81
2021/12/29 03:30:25;;;;;;;1.00;0.53;;;9.80;1.00;;;;;;5070761;28;20533;-81
2021/12/29 03:33:02;;;;;;;1.17;0.60;;;9.70;1.00;;;;;;5070611;28;20459;-81
2021/12/29 03:35:30;;;;;;;2.90;2.37;;;9.80;1.00;;;;;;5070855;28;20510;-79
2021/12/29 03:37:57;;;;;;;1.70;0.80;;;9.80;1.00;;;;;;5072114;28;20938;-82
2021/12/29 03:40:25;;;;;;;2.30;0.50;;;9.80;1.00;;;;;;5074279;28;20536;-81
2021/12/29 03:42:52;;;;;;;3.00;0.70;;;9.80;22.00;;;;;;5073876;28;20461;-81
2021/12/29 03:45:19;;;;;;;2.13;0.80;;;9.80;93.40;;;;;;5060339;28;20692;-80
2021/12/29 03:47:46;;;;;;;1.70;0.50;;;9.80;94.30;;;;;;5073249;28;21008;-80
2021/12/29 03:50:13;;;;;;;0.73;0.47;;;9.80;99.90;;;;;;5073720;28;20536;-81
2021/12/29 03:52:40;;;;;;;0.87;0.70;;;9.80;99.90;;;;;;5073890;28;20485;-82
2021/12/29 03:55:08;;;;;;;0.70;0.50;;;9.80;99.90;;;;;;5073639;28;20495;-83
2021/12/29 03:57:36;;;;;;;0.73;0.50;;;9.80;99.90;;;;;;5073678;28;20460;-82
2021/12/29 04:00:05;;;;;;;1.40;0.60;;;9.70;99.90;;;;;;5073107;28;20452;-82
2021/12/29 04:02:32;;;;;;;1.23;0.50;;;9.70;99.90;;;;;;5073617;28;21017;-83
2021/12/29 04:05:00;;;;;;;1.27;0.60;;;9.70;99.90;;;;;;5073631;28;20933;-74
2021/12/29 04:07:27;;;;;;;1.20;0.53;;;9.70;1.00;;;;;;5073462;28;20877;-83
2021/12/29 04:09:54;;;;;;;1.30;0.60;;;9.70;1.00;;;;;;5073789;28;20445;-83
2021/12/29 04:12:21;;;;;;;0.87;0.50;;;9.70;1.00;;;;;;5073040;28;20446;-80
2021/12/29 04:14:49;;;;;;;0.70;0.40;;;9.80;1.00;;;;;;5073704;28;20488;-83
2021/12/29 04:17:18;;;;;;;0.60;0.43;;;9.70;1.00;;;;;;5072679;28;20446;-83
2021/12/29 04:22:31;;;;;;;0.70;0.40;;;9.70;1.00;;;;;;5073692;28;20465;-80
2021/12/29 04:24:58;;;;;;;0.60;0.40;;;9.60;69.10;;;;;;5073731;28;20448;-81
2021/12/29 04:27:26;;;;;;;1.13;0.63;;;9.60;99.90;;;;;;5073098;28;20499;-81
2021/12/29 04:29:54;;;;;;;0.77;0.50;;;9.60;99.90;;;;;;5073257;28;20464;-84
2021/12/29 04:32:21;;;;;;;1.77;0.70;;;9.60;99.90;;;;;;5072429;28;20449;-84
2021/12/29 04:34:48;;;;;;;1.70;0.70;;;9.50;99.90;;;;;;5072957;28;20450;-82
2021/12/29 04:37:14;;;;;;;1.07;0.80;;;9.60;99.90;;;;;;5058881;28;20467;-81
2021/12/29 04:39:41;;;;;;;1.73;0.70;;;9.60;99.90;;;;;;5072832;28;20446;-80
2021/12/29 04:42:09;;;;;;;0.87;0.60;;;9.60;99.90;;;;;;5072518;28;20457;-81
2021/12/29 04:44:35;;;;;;;2.67;0.60;;;9.60;99.90;;;;;;5072803;28;20455;-81
2021/12/29 04:47:07;;;;;;;1.33;0.60;;;9.70;99.90;;;;;;5072035;28;20488;-82
2021/12/29 04:49:40;;;;;;;1.23;0.60;;;9.60;99.90;;;;;;5072024;28;20453;-81
2021/12/29 04:52:07;;;;;;;2.50;0.50;;;9.50;99.90;;;;;;5071882;28;20568;-81
2021/12/29 04:54:35;;;;;;;1.53;0.60;;;9.30;99.90;;;;;;5072972;28;20441;-81
2021/12/29 04:57:02;;;;;;;0.73;0.60;;;9.30;99.90;;;;;;5071868;28;20446;-80
2021/12/29 04:59:29;;;;;;;1.53;0.60;;;9.40;99.90;;;;;;5072945;28;20868;-82
2021/12/29 05:01:57;;;;;;;1.00;0.50;;;9.40;99.90;;;;;;5072535;28;20454;-82
2021/12/29 05:04:32;;;;;;;0.90;0.70;;;9.40;99.90;;;;;;5071919;28;20457;-81
2021/12/29 05:09:44;;;;;;;1.27;0.70;;;9.20;99.90;;;;;;5072522;28;20416;-81
2021/12/29 05:12:11;;;;;;;1.00;0.60;;;9.30;99.90;;;;;;5071815;28;20449;-80
2021/12/29 05:14:38;;;;;;;1.60;1.07;;;9.30;99.90;;;;;;5072714;28;20441;-82
2021/12/29 05:17:07;;;;;;;1.40;0.70;;;9.20;99.90;;;;;;5071330;28;20457;-82
2021/12/29 05:19:36;;;;;;;2.60;0.70;;;9.20;99.90;;;;;;5072506;28;20865;-82
2021/12/29 05:22:03;;;;;;;1.57;0.80;;;9.00;99.90;;;;;;5072063;28;20457;-84
2021/12/29 05:24:30;;;;;;;1.37;0.77;;;9.00;99.90;;;;;;5072404;28;20452;-76
2021/12/29 05:26:57;;;;;;;2.50;0.60;;;9.00;99.90;;;;;;5071938;28;20838;-81
2021/12/29 05:29:25;;;;;;;0.83;0.60;;;9.00;99.90;;;;;;5072599;28;20449;-82
2021/12/29 05:31:52;;;;;;;0.93;0.63;;;8.90;99.90;;;;;;5076286;28;20460;-84
2021/12/29 05:34:19;;;;;;;2.40;0.93;;;8.90;99.90;;;;;;5071685;28;20456;-81
2021/12/29 05:36:47;;;;;;;2.27;0.70;;;8.90;99.90;;;;;;5071756;28;20492;-81
2021/12/29 05:39:14;;;;;;;0.83;0.60;;;8.90;99.90;;;;;;5071259;28;21012;-82
2021/12/29 05:41:41;;;;;;;2.50;0.90;;;8.90;99.90;;;;;;5071878;28;20441;-81
2021/12/29 05:44:08;;;;;;;1.53;0.70;;;8.80;99.90;;;;;;5071541;28;20451;-81
2021/12/29 05:46:35;;;;;;;1.60;0.87;;;8.80;99.90;;;;;;5070969;28;21010;-84
2021/12/29 05:49:02;;;;;;;1.57;0.73;;;8.80;99.90;;;;;;5071245;28;20532;-83
2021/12/29 05:51:29;;;;;;;2.20;1.10;;;8.90;99.90;;;;;;5071209;28;20492;-84
2021/12/29 05:53:57;;;;;;;1.83;0.83;;;8.80;99.90;;;;;;5072179;28;20532;-84
2021/12/29 05:56:25;;;;;;;2.10;1.10;;;8.80;99.90;;;;;;5070992;28;20445;-84
2021/12/29 05:58:52;;;;;;;1.77;0.87;;;8.90;99.90;;;;;;5071968;28;20438;-83
2021/12/29 06:01:19;;;;;;;2.07;0.80;;;8.80;99.90;;;;;;5070921;28;20445;-81
2021/12/29 06:03:45;;;;;;;1.27;0.70;;;8.90;99.90;;;;;;5071256;28;20452;-83
2021/12/29 06:06:12;;;;;;;1.40;0.70;;;9.00;99.90;;;;;;5070503;28;20537;-83
2021/12/29 06:08:39;;;;;;;1.47;0.97;;;9.00;99.90;;;;;;5071925;28;20449;-83
2021/12/29 06:11:07;;;;;;;2.17;1.00;;;8.90;99.90;;;;;;5071143;28;20893;-81
2021/12/29 06:13:34;;;;;;;2.43;1.00;;;9.00;99.90;;;;;;5071764;28;20481;-82
2021/12/29 06:16:01;;;;;;;2.03;1.43;;;9.20;99.90;;;;;;5057333;28;20445;-81
2021/12/29 06:18:28;;;;;;;5.03;1.33;;;9.20;99.90;;;;;;5071308;28;20981;-77
2021/12/29 06:20:55;;;;;;;2.77;1.00;;;9.10;99.90;;;;;;5058291;28;20536;-82
2021/12/29 06:23:22;;;;;;;1.60;0.93;;;9.20;99.90;;;;;;5070884;28;20519;-82
2021/12/29 06:25:49;;;;;;;1.73;1.13;;;9.10;99.90;;;;;;5071078;28;20532;-81
2021/12/29 06:28:17;;;;;;;2.23;1.20;;;9.00;99.90;;;;;;5070624;28;20486;-82
2021/12/29 06:30:44;;;;;;;2.33;1.40;;;9.00;99.90;;;;;;5070178;28;20448;-81
2021/12/29 06:33:11;;;;;;;2.53;1.10;;;9.00;99.90;;;;;;5070145;28;20456;-80
2021/12/29 06:35:39;;;;;;;1.47;0.93;;;8.80;99.90;;;;;;5071317;28;20445;-82
2021/12/29 06:38:05;;;;;;;2.27;1.03;;;8.80;99.90;;;;;;5070294;28;20489;-81
2021/12/29 06:40:33;;;;;;;1.87;1.30;;;8.70;99.90;;;;;;5070907;28;20936;-81
2021/12/29 06:42:59;;;;;;;2.10;1.23;;;8.80;99.90;;;;;;5065701;28;20485;-72
2021/12/29 06:45:28;;;;;;;2.40;1.17;;;8.70;99.90;;;;;;5071109;28;20456;-84
2021/12/29 06:47:54;;;;;;;3.63;1.13;;;8.70;99.90;;;;;;5070795;28;20487;-81
2021/12/29 06:50:21;;;;;;;4.40;1.30;;;8.80;99.90;;;;;;5070482;28;20450;-82
2021/12/29 06:52:48;;;;;;;1.37;0.97;;;8.70;99.90;;;;;;5070384;28;20568;-82
2021/12/29 06:55:15;;;;;;;3.40;1.20;;;8.70;99.90;;;;;;5070165;28;20445;-82
2021/12/29 06:57:42;;;;;;;1.27;0.80;;;8.80;99.90;;;;;;5070370;28;20958;-82
2021/12/29 07:00:10;;;;;;;2.17;1.00;;;8.80;99.90;;;;;;5070423;28;20456;-82
2021/12/29 07:02:38;;;;;;;1.67;0.90;;;8.80;99.90;;;;;;5070967;28;20485;-83
2021/12/29 07:05:06;;;;;;;1.87;0.77;;;8.80;99.90;;;;;;5070822;28;20442;-79
2021/12/29 07:07:33;;;;;;;2.27;0.80;;;8.80;99.90;;;;;;5070266;28;20477;-81
2021/12/29 07:10:00;;;;;;;2.17;1.00;;;8.80;99.90;;;;;;5070483;28;20481;-80
2021/12/29 07:12:27;;;;;;;2.00;1.10;;;8.90;99.90;;;;;;5072102;28;20455;-82
2021/12/29 07:14:54;;;;;;;1.80;1.17;;;8.90;99.90;;;;;;5074962;28;20453;-82
2021/12/29 07:17:21;;;;;;;1.77;1.20;;;8.80;99.90;;;;;;5073706;28;20455;-83
2021/12/29 07:19:49;;;;;;;1.60;1.17;;;8.80;99.90;;;;;;5074762;28;20462;-82
2021/12/29 07:22:16;;;;;;;2.53;1.10;;;8.90;99.90;;;;;;5073649;28;20929;-82
2021/12/29 07:24:43;;;;;;;2.33;1.00;;;8.80;99.90;;;;;;5074568;28;20449;-81
2021/12/29 07:27:10;;;;;;;3.93;1.30;;;8.90;99.90;;;;;;5073305;28;20483;-82
2021/12/29 07:29:37;;;;;;;1.30;1.00;;;9.00;99.90;;;;;;5074411;28;20972;-81
2021/12/29 07:32:05;;;;;;;1.83;1.27;;;9.10;99.90;;;;;;5073807;28;20445;-81
2021/12/29 07:34:32;;;;;;;3.93;1.40;;;9.10;99.90;;;;;;5074265;28;20536;-81
2021/12/29 07:37:00;;;;;;;4.00;0.97;;;9.20;99.90;;;;;;5074081;28;20536;-82
2021/12/29 07:39:27;;;;;;;1.63;0.90;;;9.20;99.90;;;;;;5074549;28;20453;-82
2021/12/29 07:41:55;;;;;;;3.00;1.37;;;9.30;99.90;;;;;;5074638;28;20464;-79
2021/12/29 07:44:22;;;;;;;2.40;0.90;;;9.20;99.90;;;;;;5073795;28;20452;-81
2021/12/29 07:46:53;;;;;;;2.90;1.00;;;9.20;99.90;;;;;;5073672;28;20761;-82
2021/12/29 07:49:21;;;;;;;3.87;1.80;;;9.30;99.90;;;;;;5073619;28;20522;-82
2021/12/29 07:51:48;;;;;;;3.20;0.97;;;9.30;99.90;;;;;;5074195;28;20487;-82
2021/12/29 07:54:16;;;;;;;4.20;1.47;;;9.30;99.90;;;;;;5073191;28;20468;-82
2021/12/29 07:56:44;;;;;;;11.87;7.50;;;9.40;99.90;;;;;;5073545;28;20952;-82
2021/12/29 07:59:11;;;;;;;9.07;5.73;;;9.40;99.90;;;;;;5073303;28;20441;-80
2021/12/29 08:01:39;;;;;;;2.30;1.40;;;9.40;99.90;;;;;;5074096;28;20544;-82
2021/12/29 08:04:06;;;;;;;2.47;1.20;;;9.30;99.90;;;;;;5073133;28;20800;-82
2021/12/29 08:06:33;;;;;;;1.87;1.13;;;9.40;99.90;;;;;;5073592;28;20481;-82
2021/12/29 08:09:00;;;;;;;2.33;1.20;;;9.40;99.90;;;;;;5073356;28;20572;-77
2021/12/29 08:11:28;;;;;;;1.80;1.40;;;9.30;99.90;;;;;;5073959;28;20522;-83
2021/12/29 08:13:55;;;;;;;1.10;0.70;;;9.30;99.90;;;;;;5073988;28;20528;-82
2021/12/29 08:16:22;;;;;;;2.90;1.50;;;9.20;99.90;;;;;;5072392;28;20460;-83
2021/12/29 08:18:50;;;;;;;1.43;1.00;;;9.20;99.90;;;;;;5073607;28;20922;-82
2021/12/29 08:21:17;;;;;;;2.87;1.17;;;9.10;99.90;;;;;;5073027;28;20457;-84
2021/12/29 08:23:44;;;;;;;4.20;1.50;;;9.10;99.90;;;;;;5073580;28;20445;-84
2021/12/29 08:26:11;;;;;;;6.27;1.87;;;9.00;99.90;;;;;;5072686;28;20536;-76
2021/12/29 08:28:39;;;;;;;1.97;1.10;;;9.00;99.90;;;;;;5073624;28;20848;-81
2021/12/29 08:31:06;;;;;;;1.87;1.30;;;9.10;99.90;;;;;;5072600;28;20449;-83
2021/12/29 08:33:37;;;;;;;1.83;1.03;;;9.20;99.90;;;;;;5073462;28;20462;-81
2021/12/29 08:36:05;;;;;;;2.73;1.03;;;9.20;99.90;;;;;;5072205;28;20540;-81
2021/12/29 08:38:32;;;;;;;2.20;0.90;;;9.10;99.90;;;;;;5072935;28;20946;-81
2021/12/29 08:40:59;;;;;;;4.33;1.20;;;9.20;99.90;;;;;;5073608;28;20469;-81
2021/12/29 08:43:26;;;;;;;2.20;1.20;;;9.20;99.90;;;;;;5073086;28;20454;-81
2021/12/29 08:45:54;;;;;;;3.10;1.63;;;9.40;99.90;;;;;;5072313;28;20933;-81
2021/12/29 08:48:21;;;;;;;2.37;0.97;;;9.50;99.90;;;;;;5072342;28;20487;-81
2021/12/29 08:50:48;;;;;;;2.40;1.10;;;9.40;99.90;;;;;;5072992;28;20449;-81
2021/12/29 08:53:15;;;;;;;2.43;0.90;;;9.60;99.90;;;;;;5072138;28;20492;-83
2021/12/29 08:55:46;;;;;;;1.07;0.90;;;9.60;99.90;;;;;;5072718;28;20456;-81
2021/12/29 08:58:14;;;;;;;3.63;1.10;;;9.60;99.90;;;;;;5072323;28;20485;-81
2021/12/29 09:00:41;;;;;;;2.10;1.10;;;9.70;99.90;;;;;;5072558;28;20445;-80
2021/12/29 09:03:09;;;;;;;3.37;1.00;;;9.60;99.90;;;;;;5072259;28;20446;-82
2021/12/29 09:05:37;;;;;;;1.80;0.70;;;9.70;99.90;;;;;;5072322;28;20803;-81
2021/12/29 09:08:04;;;;;;;2.80;0.90;;;9.70;99.90;;;;;;5072215;28;20860;-80
2021/12/29 09:10:31;;;;;;;2.10;0.90;;;9.70;99.90;;;;;;5072527;28;20485;-80
2021/12/29 09:12:58;;;;;;;1.10;0.80;;;9.70;99.90;;;;;;5072417;28;20452;-83
2021/12/29 09:15:26;;;;;;;4.77;1.40;;;9.60;99.90;;;;;;5072479;28;20453;-83
2021/12/29 09:17:53;;;;;;;2.87;1.10;;;9.70;99.90;;;;;;5071867;28;20453;-82
2021/12/29 09:20:30;;;;;;;1.20;0.80;;;9.70;99.90;;;;;;5071419;28;20568;-82
2021/12/29 09:23:00;;;;;;;1.30;0.80;;;9.80;99.90;;;;;;5072848;28;20557;-82
2021/12/29 09:25:28;;;;;;;1.70;1.00;;;9.90;99.90;;;;;;5072277;28;20448;-78
2021/12/29 09:27:55;;;;;;;9.63;1.57;;;10.00;99.90;;;;;;5072511;28;20528;-82
2021/12/29 09:30:26;;;;;;;3.83;1.40;;;10.00;99.90;;;;;;5071724;28;20524;-82
2021/12/29 09:32:54;;;;;;;2.60;1.03;;;10.10;99.90;;;;;;5072248;28;20503;-82
2021/12/29 09:35:23;;;;;;;1.70;0.90;;;10.10;99.90;;;;;;5070936;28;20512;-80
2021/12/29 09:37:51;;;;;;;2.00;0.83;;;10.10;99.90;;;;;;5071591;28;21030;-83
2021/12/29 09:40:20;;;;;;;2.00;1.00;;;10.20;99.90;;;;;;5071347;28;20442;-80
2021/12/29 09:42:47;;;;;;;1.50;0.87;;;10.20;99.90;;;;;;5071823;28;20449;-82
2021/12/29 09:45:15;;;;;;;2.23;0.90;;;10.10;99.90;;;;;;5071138;28;20541;-82
2021/12/29 09:47:41;;;;;;;2.90;1.10;;;10.10;99.90;;;;;;5070892;28;20481;-82
2021/12/29 09:50:11;;;;;;;2.30;1.50;;;10.10;99.90;;;;;;5071062;28;20455;-82
2021/12/29 09:52:40;;;;;;;5.33;2.00;;;10.30;99.90;;;;;;5071592;28;20969;-82
2021/12/29 09:55:11;;;;;;;1.57;0.80;;;10.40;99.90;;;;;;5071008;28;20452;-82
2021/12/29 09:57:41;;;;;;;2.40;1.30;;;10.30;99.90;;;;;;5071379;28;20444;-82
2021/12/29 10:00:13;;;;;;;1.93;1.20;;;10.40;99.90;;;;;;5071220;28;20446;-82
2021/12/29 10:02:39;;;;;;;3.60;1.23;;;10.30;99.90;;;;;;5071694;28;20468;-82
2021/12/29 10:05:07;;;;;;;1.30;1.07;;;10.40;99.90;;;;;;5070900;28;20850;-82
2021/12/29 10:07:34;;;;;;;3.10;1.60;;;10.40;99.90;;;;;;5070947;28;20448;-81
2021/12/29 10:10:16;;;;;;;2.87;1.50;;;10.40;99.90;;;;;;5070686;28;21005;-81
2021/12/29 10:12:44;;;;;;;1.40;1.10;;;10.50;99.90;;;;;;5071554;28;20815;-82
2021/12/29 10:15:11;;;;;;;1.70;0.97;;;10.50;99.90;;;;;;5070988;28;20449;-77
2021/12/29 10:17:38;;;;;;;1.50;1.20;;;10.40;99.90;;;;;;5070708;28;20452;-81
2021/12/29 10:20:07;;;;;;;1.53;1.20;;;10.50;99.90;;;;;;5070608;28;20527;-80
2021/12/29 10:22:34;;;;;;;2.37;1.30;;;10.60;99.90;;;;;;5071662;28;20457;-81
2021/12/29 10:25:06;;;;;;;5.30;1.53;;;10.50;99.90;;;;;;5070859;28;20453;-81
2021/12/29 10:27:34;;;;;;;3.73;1.43;;;10.50;99.90;;;;;;5070766;28;20448;-80
2021/12/29 10:30:03;;;;;;;3.80;1.53;;;10.60;99.90;;;;;;5070569;28;20460;-80
2021/12/29 10:32:30;;;;;;;1.80;0.90;;;10.50;99.90;;;;;;5071233;28;20551;-79
2021/12/29 10:34:57;;;;;;;1.60;1.27;;;10.60;99.90;;;;;;5071427;28;20448;-81
2021/12/29 10:37:24;;;;;;;2.77;1.10;;;10.60;99.90;;;;;;5070056;28;20540;-81
2021/12/29 10:39:55;;;;;;;2.60;1.00;;;10.60;22.60;;;;;;5071284;28;20460;-81
2021/12/29 10:42:26;;;;;;;3.33;1.37;;;10.60;1.00;;;;;;5070855;28;20523;-80
2021/12/29 10:44:56;;;;;;;5.97;1.50;;;10.50;1.00;;;;;;5071187;28;20477;-80
2021/12/29 10:47:24;;;;;;;4.10;1.63;;;10.50;1.00;;;;;;5071449;28;20870;-81
2021/12/29 10:49:53;;;;;;;3.67;1.20;;;10.40;1.00;;;;;;5075274;28;20491;-81
2021/12/29 10:52:31;;;;;;;4.47;1.40;;;10.40;1.00;;;;;;5074792;28;20485;-81
2021/12/29 10:54:58;;;;;;;3.03;1.10;;;10.50;1.00;;;;;;5075518;28;20445;-81
2021/12/29 10:57:26;;;;;;;5.90;1.37;;;10.50;1.00;;;;;;5075317;28;20464;-81
2021/12/29 10:59:58;;;;;;;1.30;1.10;;;10.60;1.00;;;;;;5075149;28;20538;-81
2021/12/29 11:02:30;;;;;;;0.90;0.70;;;10.80;1.00;;;;;;5075338;28;20791;-81
2021/12/29 11:05:00;;;;;;;1.90;1.27;;;10.60;1.00;;;;;;5075014;28;20929;-81
2021/12/29 11:07:29;;;;;;;5.00;1.80;;;10.70;1.00;;;;;;5074760;28;20451;-81
2021/12/29 11:09:56;;;;;;;3.27;1.63;;;10.60;1.00;;;;;;5075146;28;20567;-81
2021/12/29 11:12:25;;;;;;;2.57;1.20;;;10.60;1.00;;;;;;5074389;28;20454;-81
2021/12/29 11:14:53;;;;;;;3.63;1.10;;;10.80;1.00;;;;;;5074725;28;20445;-81
2021/12/29 11:17:24;;;;;;;4.10;1.20;;;10.70;1.00;;;;;;5073613;28;20444;-81
2021/12/29 11:19:53;;;;;;;2.00;1.17;;;10.70;1.00;;;;;;5074627;28;20449;-81
2021/12/29 11:22:22;;;;;;;2.43;1.20;;;10.70;1.00;;;;;;5074134;28;21007;-81
2021/12/29 11:24:55;;;;;;;3.30;1.17;;;10.80;1.00;;;;;;5074314;28;20992;-81
2021/12/29 11:27:22;;;;;;;5.17;1.30;;;10.80;1.00;;;;;;5060433;28;20453;-81
2021/12/29 11:29:56;;;;;;;2.73;1.23;;;10.80;1.00;;;;;;5074558;28;20488;-81
2021/12/29 11:32:27;;;;;;;2.40;1.10;;;10.90;1.00;;;;;;5073656;28;20440;-81
2021/12/29 11:35:07;;;;;;;1.57;1.00;;;10.80;1.00;;;;;;5074145;28;20938;-81
2021/12/29 11:37:35;;;;;;;3.57;1.17;;;10.80;1.00;;;;;;5074066;28;20446;-80
2021/12/29 11:40:06;;;;;;;1.53;0.97;;;10.80;1.00;;;;;;5073940;28;20452;-80
2021/12/29 11:42:33;;;;;;;2.60;1.43;;;10.80;1.00;;;;;;5074290;28;20441;-80
2021/12/29 11:45:01;;;;;;;1.80;1.20;;;10.80;1.00;;;;;;5073588;28;20449;-70
2021/12/29 11:47:28;;;;;;;2.30;0.93;;;10.80;1.00;;;;;;5073899;28;20451;-81
2021/12/29 11:49:55;;;;;;;3.87;1.07;;;10.70;1.00;;;;;;5073891;28;20481;-81
2021/12/29 11:52:50;;;;;;;1.63;0.83;;;10.70;1.00;;;;;;5073620;28;20564;-80
2021/12/29 11:55:21;;;;;;;3.30;1.40;;;10.60;1.00;;;;;;5062894;28;20448;-80
2021/12/29 11:57:48;;;;;;;1.53;0.90;;;10.60;1.00;;;;;;5073765;28;20528;-81
2021/12/29 12:00:21;;;;;;;1.10;1.00;;;10.70;1.00;;;;;;5073333;28;20929;-80
2021/12/29 12:02:49;;;;;;;2.07;1.20;;;10.70;1.00;;;;;;5073711;28;20449;-81
2021/12/29 12:05:18;;;;;;;4.47;1.20;;;10.70;1.00;;;;;;5072721;28;20455;-81
2021/12/29 12:07:46;;;;;;;1.13;0.70;;;10.80;1.00;;;;;;5074007;28;20989;-80
2021/12/29 12:10:27;;;;;;;3.30;1.20;;;10.80;1.00;;;;;;5073474;28;20485;-80
2021/12/29 12:12:54;;;;;;;3.60;1.30;;;10.80;1.00;;;;;;5073826;28;20441;-80
2021/12/29 12:15:31;;;;;;;2.93;1.20;;;;;;;;;;5072391;28;20945;-80
2021/12/29 12:18:06;;;;;;;1.60;1.00;;;;;;;;;;5073777;28;20455;-81
2021/12/29 12:20:39;;;;;;;5.23;1.30;;;10.90;1.00;;;;;;5073440;28;20441;-80
2021/12/29 12:23:07;;;;;;;5.43;1.03;;;11.10;99.90;;;;;;5075511;28;21047;-80
2021/12/29 12:25:35;;;;;;;3.40;1.37;;;11.20;99.90;;;;;;5075311;28;20446;-80
2021/12/29 12:28:03;;;;;;;1.47;1.13;;;11.30;99.90;;;;;;5073537;28;20553;-80
2021/12/29 12:30:41;;;;;;;2.27;1.03;;;11.40;99.90;;;;;;5073855;28;20566;-76
2021/12/29 12:33:14;;;;;;;3.00;1.53;;;11.50;97.20;;;;;;5072985;28;20444;-80
2021/12/29 12:35:43;;;;;;;1.77;1.10;;;11.40;77.60;;;;;;5073345;28;20871;-77
2021/12/29 12:38:16;;;;;;;5.53;1.03;;;;;;;;;;5072871;28;20449;-81
2021/12/29 12:40:43;;;;;;;3.47;1.40;;;;;;;;;;5073773;28;20540;-80
2021/12/29 12:43:13;;;;;;;5.70;1.27;;;;;;;;;;5072934;28;20452;-80
2021/12/29 12:45:43;;;;;;;3.77;1.20;;;;;;;;;;5072947;28;20468;-80
2021/12/29 12:48:12;;;;;;;2.40;1.47;;;;;;;;;;5072458;28;20482;-81
2021/12/29 12:50:40;;;;;;;2.73;1.10;;;;;;;;;;5072762;28;21030;-80
2021/12/29 12:53:08;;;;;;;3.17;1.10;;;;;;;;;;5072002;28;20477;-81
2021/12/29 12:55:44;;;;;;;3.47;1.60;;;;;;;;;;5072491;28;20457;-80
2021/12/29 12:58:11;;;;;;;6.10;1.57;;;;;;;;;;5072448;28;20448;-80
2021/12/29 13:00:44;;;;;;;4.50;1.30;;;;;;;;;;5072885;28;20450;-80
2021/12/29 13:03:15;;;;;;;7.43;1.97;;;;;;;;;;5072379;28;20445;-79
2021/12/29 13:05:44;;;;;;;5.20;1.67;;;;;;;;;;5072334;28;20452;-79
2021/12/29 13:08:13;;;;;;;6.43;1.40;;;;;;;;;;5072264;28;20450;-79
2021/12/29 13:10:43;;;;;;;5.77;1.90;;;;;;;;;;5071739;28;20492;-80
2021/12/29 13:13:14;;;;;;;3.30;1.83;;;;;;;;;;5072345;28;20855;-81
2021/12/29 13:15:44;;;;;;;6.30;1.97;;;;;;;;;;5072305;28;20484;-80